Time;durP1;ratioP1;P1;durP2;ratioP2;P2;SDS_P1;SDS_P2;PMS_P1;PMS_P2;Temp;Humidity;BMP_temperature;BMP_pressure;BME280_temperature;BME280_humidity;BME280_pressure;Samples;Min_cycle;Max_cycle;Signal;HPM_P1;HPM_P2
2023/12/24 00:00:34;;;;;;;6.47;1.40;;;;;;;11.70;100.00;101007.88;5215735;28;20079;-75
2023/12/24 00:03:05;;;;;;;5.55;1.00;;;;;;;11.80;100.00;101014.78;5210168;28;20029;-76
2023/12/24 00:05:35;;;;;;;5.05;1.10;;;;;;;11.72;100.00;101011.25;5215680;28;20059;-75
2023/12/24 00:08:05;;;;;;;9.10;1.23;;;;;;;11.84;100.00;101012.59;5211762;28;20139;-75
2023/12/24 00:10:36;;;;;;;6.88;1.77;;;;;;;11.87;100.00;101009.59;5210180;28;20440;-75
2023/12/24 00:13:07;;;;;;;7.25;1.50;;;;;;;11.82;100.00;101012.78;5213423;28;20025;-75
2023/12/24 00:15:37;;;;;;;5.45;1.00;;;;;;;11.88;100.00;101005.88;5213316;28;20017;-75
2023/12/24 00:18:07;;;;;;;7.07;1.17;;;;;;;11.91;100.00;101006.38;5210623;28;20033;-75
2023/12/24 00:20:38;;;;;;;3.28;0.95;;;;;;;11.98;100.00;101013.75;5212036;28;20669;-75
2023/12/24 00:23:10;;;;;;;7.57;1.42;;;;;;;12.02;100.00;101013.25;5209728;28;20087;-75
2023/12/24 00:25:40;;;;;;;5.00;1.00;;;;;;;12.13;100.00;101015.56;5206940;28;20017;-75
2023/12/24 00:28:11;;;;;;;7.63;1.05;;;;;;;12.12;100.00;100999.63;5219005;28;20082;-75
2023/12/24 00:30:41;;;;;;;6.93;1.52;;;;;;;12.07;100.00;100997.44;5213904;28;20025;-75
2023/12/24 00:33:12;;;;;;;3.80;1.15;;;;;;;12.13;100.00;100996.75;5205458;28;20054;-76
2023/12/24 00:35:42;;;;;;;7.43;1.30;;;;;;;12.03;100.00;100990.72;5208810;28;20644;-75
2023/12/24 00:38:13;;;;;;;6.35;0.98;;;;;;;12.04;100.00;100984.34;5208018;28;20028;-76
2023/12/24 00:40:44;;;;;;;6.43;1.27;;;;;;;12.10;100.00;100978.28;5207687;28;20035;-75
2023/12/24 00:43:14;;;;;;;5.43;0.77;;;;;;;12.17;100.00;100983.81;5211058;28;20047;-76
2023/12/24 00:45:45;;;;;;;5.88;1.00;;;;;;;11.94;100.00;100978.31;5207321;28;20017;-75
2023/12/24 00:48:15;;;;;;;4.05;1.02;;;;;;;12.03;100.00;100965.69;5215477;28;20029;-76
2023/12/24 00:50:46;;;;;;;2.50;0.60;;;;;;;12.02;100.00;100974.78;5215238;28;20033;-75
2023/12/24 00:53:16;;;;;;;6.03;1.38;;;;;;;11.95;100.00;100958.50;5210868;28;20029;-75
2023/12/24 00:55:46;;;;;;;7.35;1.15;;;;;;;11.88;100.00;100950.28;5212179;28;20400;-75
2023/12/24 00:58:17;;;;;;;13.73;1.42;;;;;;;11.77;100.00;100942.53;5206573;28;20400;-75
2023/12/24 01:00:48;;;;;;;3.72;0.77;;;;;;;11.92;100.00;100940.00;5208981;28;20477;-75
2023/12/24 01:03:19;;;;;;;5.53;1.77;;;;;;;11.78;100.00;100940.69;5211920;28;20033;-75
2023/12/24 01:05:50;;;;;;;9.30;1.00;;;;;;;11.86;100.00;100943.41;5212836;28;20025;-75
2023/12/24 01:08:20;;;;;;;5.15;1.00;;;;;;;11.84;100.00;100934.66;5212794;28;20033;-76
2023/12/24 01:10:51;;;;;;;4.95;1.10;;;;;;;11.80;100.00;100936.00;5205585;28;20678;-76
2023/12/24 01:13:22;;;;;;;5.88;1.10;;;;;;;11.83;100.00;100933.81;5209433;28;20039;-76
2023/12/24 01:15:52;;;;;;;4.18;1.30;;;;;;;12.00;100.00;100918.50;5213616;28;20377;-76
2023/12/24 01:18:23;;;;;;;5.80;1.30;;;;;;;11.96;100.00;100913.63;5208218;28;20029;-75
2023/12/24 01:20:53;;;;;;;9.95;1.75;;;;;;;11.91;100.00;100898.03;5206194;28;20025;-75
2023/12/24 01:23:24;;;;;;;7.25;1.13;;;;;;;11.91;100.00;100900.72;5209978;28;20528;-76
2023/12/24 01:25:54;;;;;;;7.75;1.05;;;;;;;11.92;100.00;100894.31;5210034;28;20032;-75
2023/12/24 01:28:25;;;;;;;6.43;0.90;;;;;;;11.94;100.00;100900.34;5207918;28;20495;-75
2023/12/24 01:30:55;;;;;;;6.43;1.08;;;;;;;11.88;100.00;100891.13;5209661;28;20032;-75
2023/12/24 01:33:26;;;;;;;8.10;0.82;;;;;;;11.97;100.00;100881.19;5207641;28;21584;-75
2023/12/24 01:35:56;;;;;;;7.47;1.25;;;;;;;11.88;100.00;100882.22;5207665;28;20028;-76
2023/12/24 01:38:27;;;;;;;7.05;0.65;;;;;;;11.85;100.00;100891.50;5207331;28;20030;-75
2023/12/24 01:40:57;;;;;;;2.25;0.60;;;;;;;11.80;100.00;100879.56;5209266;28;20029;-75
2023/12/24 01:43:28;;;;;;;6.82;1.30;;;;;;;11.79;100.00;100877.84;5207720;28;20025;-75
2023/12/24 01:45:58;;;;;;;0.98;0.68;;;;;;;11.73;100.00;100879.38;5205600;28;20075;-75
2023/12/24 01:48:29;;;;;;;5.63;0.82;;;;;;;11.71;100.00;100873.34;5211302;28;20029;-75
2023/12/24 01:51:00;;;;;;;7.50;0.90;;;;;;;11.68;100.00;100876.38;5206448;28;20477;-75
2023/12/24 01:53:32;;;;;;;4.28;1.10;;;;;;;11.71;100.00;100861.78;5202544;28;20064;-75
2023/12/24 01:56:05;;;;;;;6.55;1.30;;;;;;;11.61;100.00;100854.75;5206391;28;20029;-75
2023/12/24 01:58:37;;;;;;;6.30;1.05;;;;;;;11.62;100.00;100860.94;5208653;28;20036;-75
2023/12/24 02:01:08;;;;;;;4.45;1.30;;;;;;;11.64;100.00;100873.19;5207752;28;20086;-76
2023/12/24 02:03:38;;;;;;;8.45;1.20;;;;;;;11.66;100.00;100867.66;5212218;28;20037;-76
2023/12/24 02:06:10;;;;;;;3.28;1.50;;;;;;;11.61;100.00;100860.13;5211155;28;20025;-76
2023/12/24 02:08:40;;;;;;;8.27;1.90;;;;;;;11.61;100.00;100870.03;5214010;28;20034;-76
2023/12/24 02:11:11;;;;;;;6.68;1.27;;;;;;;11.63;100.00;100871.53;5204715;28;20029;-76
2023/12/24 02:13:43;;;;;;;2.50;1.30;;;;;;;11.53;100.00;100870.03;5204456;28;20032;-76
2023/12/24 02:16:18;;;;;;;3.70;1.73;;;;;;;11.68;100.00;100869.16;5196947;28;20048;-76
2023/12/24 02:18:49;;;;;;;4.40;1.42;;;;;;;11.66;100.00;100875.72;5204023;28;20444;-76
2023/12/24 02:21:20;;;;;;;4.45;1.60;;;;;;;11.64;100.00;100886.63;5206212;28;20029;-76
2023/12/24 02:23:50;;;;;;;4.03;1.60;;;;;;;11.58;100.00;100884.63;5202538;28;20029;-76
2023/12/24 02:26:28;;;;;;;2.83;1.50;;;;;;;11.56;100.00;100883.16;5204202;28;20366;-77
2023/12/24 02:29:06;;;;;;;3.05;1.75;;;;;;;11.53;100.00;100872.72;5206307;28;20510;-77
2023/12/24 02:31:39;;;;;;;4.50;1.58;;;;;;;11.35;100.00;100867.59;5209402;28;20037;-77
2023/12/24 02:34:14;;;;;;;5.05;1.60;;;;;;;11.42;100.00;100865.88;5207525;28;20029;-77
2023/12/24 02:36:47;;;;;;;4.00;1.63;;;;;;;11.46;100.00;100856.47;5208667;28;20029;-77
2023/12/24 02:39:17;;;;;;;4.97;1.80;;;;;;;11.35;100.00;100852.31;5212392;28;20115;-77
2023/12/24 02:41:48;;;;;;;7.72;2.42;;;;;;;11.30;100.00;100859.19;5216855;28;20102;-78
2023/12/24 02:44:19;;;;;;;5.63;1.80;;;;;;;11.31;100.00;100861.69;5214040;28;20029;-77
2023/12/24 02:46:49;;;;;;;2.90;1.30;;;;;;;11.32;100.00;100849.94;5211621;28;20025;-78
2023/12/24 02:49:20;;;;;;;3.72;1.02;;;;;;;11.33;100.00;100842.72;5214316;28;20153;-78
2023/12/24 02:51:51;;;;;;;4.47;1.48;;;;;;;11.22;100.00;100838.56;5213687;28;20035;-78
2023/12/24 02:54:21;;;;;;;4.18;1.30;;;;;;;11.31;100.00;100847.44;5204774;28;20033;-78
2023/12/24 02:56:52;;;;;;;3.33;1.25;;;;;;;11.24;100.00;100849.13;5212190;28;20022;-78
2023/12/24 02:59:25;;;;;;;1.20;1.00;;;;;;;11.18;100.00;100845.25;5215093;28;20041;-78
2023/12/24 03:01:58;;;;;;;1.50;0.75;;;;;;;11.14;100.00;100842.09;5208407;28;20017;-78
2023/12/24 03:04:29;;;;;;;1.98;0.77;;;;;;;11.24;100.00;100851.81;5207257;28;20021;-78
2023/12/24 03:06:59;;;;;;;1.48;0.73;;;;;;;11.15;100.00;100849.16;5215206;28;20026;-78
2023/12/24 03:09:30;;;;;;;1.50;1.17;;;;;;;11.21;100.00;100836.03;5209221;28;20118;-78
2023/12/24 03:12:01;;;;;;;1.60;0.60;;;;;;;11.13;100.00;100826.97;5211163;28;20022;-78
2023/12/24 03:14:32;;;;;;;4.10;1.00;;;;;;;11.19;100.00;100832.66;5204315;28;20029;-78
2023/12/24 03:17:03;;;;;;;3.17;0.57;;;;;;;11.19;100.00;100827.31;5210861;28;20045;-77
2023/12/24 03:19:34;;;;;;;2.35;0.60;;;;;;;11.22;100.00;100818.91;5213648;28;20033;-78
2023/12/24 03:22:04;;;;;;;4.30;0.52;;;;;;;11.22;100.00;100816.22;5213339;28;20032;-78
2023/12/24 03:24:38;;;;;;;0.50;0.32;;;;;;;11.14;100.00;100811.69;5211554;28;20039;-77
2023/12/24 03:27:15;;;;;;;1.00;0.60;;;;;;;11.24;100.00;100804.28;5210232;28;20025;-77
2023/12/24 03:29:45;;;;;;;1.60;0.60;;;;;;;11.19;100.00;100803.13;5212833;28;20029;-77
2023/12/24 03:32:16;;;;;;;1.42;0.95;;;;;;;11.11;100.00;100796.78;5209261;28;20018;-78
2023/12/24 03:34:47;;;;;;;2.17;0.80;;;;;;;11.17;100.00;100794.44;5205428;28;20021;-77
2023/12/24 03:37:17;;;;;;;1.63;0.90;;;;;;;11.25;100.00;100781.81;5215025;28;20090;-77
2023/12/24 03:39:48;;;;;;;2.50;0.60;;;;;;;11.26;100.00;100783.50;5208507;28;20036;-77
2023/12/24 03:42:18;;;;;;;2.42;0.75;;;;;;;11.32;100.00;100771.22;5212195;28;20028;-77
2023/12/24 03:44:49;;;;;;;2.85;0.80;;;;;;;11.28;100.00;100767.19;5208546;28;20473;-77
2023/12/24 03:47:19;;;;;;;1.00;0.70;;;;;;;11.29;100.00;100774.25;5202512;28;20030;-77
2023/12/24 03:49:50;;;;;;;0.70;0.57;;;;;;;11.34;100.00;100759.28;5207857;28;20036;-77
2023/12/24 03:52:20;;;;;;;2.75;0.80;;;;;;;11.30;100.00;100751.78;5208456;28;20510;-77
2023/12/24 03:54:51;;;;;;;2.15;0.80;;;;;;;11.31;100.00;100748.91;5207650;28;20104;-77
2023/12/24 03:57:21;;;;;;;2.78;0.90;;;;;;;11.15;100.00;100762.38;5205833;28;20077;-76
2023/12/24 03:59:52;;;;;;;1.70;0.65;;;;;;;11.26;100.00;100747.75;5209076;28;20029;-77
2023/12/24 04:02:24;;;;;;;1.35;0.70;;;;;;;11.26;100.00;100762.00;5214094;28;20069;-77
2023/12/24 04:04:55;;;;;;;2.83;0.77;;;;;;;11.27;100.00;100747.56;5212726;28;20032;-77
2023/12/24 04:07:25;;;;;;;3.20;0.80;;;;;;;11.24;100.00;100749.75;5214152;28;20028;-77
2023/12/24 04:09:56;;;;;;;4.80;0.85;;;;;;;11.29;100.00;100758.13;5212651;28;20074;-77
2023/12/24 04:12:26;;;;;;;3.50;0.57;;;;;;;11.22;100.00;100747.25;5208144;28;20033;-77
2023/12/24 04:14:57;;;;;;;2.40;0.73;;;;;;;11.28;100.00;100756.47;5211182;28;20029;-76
2023/12/24 04:17:28;;;;;;;1.08;0.80;;;;;;;11.35;100.00;100754.78;5204878;28;20034;-77
2023/12/24 04:19:59;;;;;;;2.38;1.00;;;;;;;11.31;100.00;100750.75;5209572;28;20045;-77
2023/12/24 04:22:30;;;;;;;2.33;0.73;;;;;;;11.32;100.00;100752.44;5210283;28;20033;-76
2023/12/24 04:25:01;;;;;;;2.72;0.65;;;;;;;11.36;100.00;100759.13;5206908;28;20036;-77
2023/12/24 04:27:31;;;;;;;1.60;0.80;;;;;;;11.35;100.00;100749.41;5209994;28;20034;-77
2023/12/24 04:30:02;;;;;;;2.45;0.60;;;;;;;11.36;100.00;100751.06;5208829;28;20021;-77
2023/12/24 04:32:33;;;;;;;2.63;0.82;;;;;;;11.33;100.00;100751.41;5209938;28;20021;-77
2023/12/24 04:35:05;;;;;;;3.40;0.93;;;;;;;11.39;100.00;100746.16;5214179;28;20484;-76
2023/12/24 04:37:36;;;;;;;2.45;0.90;;;;;;;11.41;100.00;100740.66;5203479;28;20445;-76
2023/12/24 04:40:07;;;;;;;2.03;1.00;;;;;;;11.43;100.00;100743.97;5211261;28;20039;-77
2023/12/24 04:42:38;;;;;;;4.30;1.00;;;;;;;11.46;100.00;100756.25;5210010;28;20118;-77
2023/12/24 04:45:08;;;;;;;1.83;0.95;;;;;;;11.44;100.00;100745.66;5210626;28;20453;-77
2023/12/24 04:47:39;;;;;;;2.42;0.90;;;;;;;11.44;100.00;100748.34;5206834;28;20499;-77
2023/12/24 04:50:10;;;;;;;1.98;0.80;;;;;;;11.46;100.00;100740.13;5209000;28;20404;-77
2023/12/24 04:52:40;;;;;;;4.43;1.35;;;;;;;11.45;100.00;100746.50;5207599;28;20060;-77
2023/12/24 04:55:11;;;;;;;8.45;2.60;;;;;;;11.46;100.00;100738.28;5211703;28;20033;-77
2023/12/24 04:57:42;;;;;;;5.05;1.02;;;;;;;11.46;100.00;100743.66;5201142;28;20026;-76
2023/12/24 05:00:13;;;;;;;3.08;0.90;;;;;;;11.36;100.00;100733.09;5210314;28;20029;-75
2023/12/24 05:02:44;;;;;;;3.63;1.30;;;;;;;11.41;100.00;100733.41;5209031;28;20128;-76
2023/12/24 05:05:15;;;;;;;3.95;1.63;;;;;;;11.44;100.00;100734.06;5213491;28;20114;-77
2023/12/24 05:07:45;;;;;;;4.38;1.30;;;;;;;11.43;100.00;100741.28;5210213;28;20439;-77
2023/12/24 05:10:16;;;;;;;5.70;1.92;;;;;;;11.37;100.00;100733.94;5208890;28;20091;-77
2023/12/24 05:12:46;;;;;;;3.92;1.42;;;;;;;11.41;100.00;100735.28;5208513;28;20029;-76
2023/12/24 05:15:17;;;;;;;5.53;1.77;;;;;;;11.40;100.00;100728.22;5209962;28;20061;-76
2023/12/24 05:17:48;;;;;;;7.60;2.85;;;;;;;11.36;100.00;100740.31;5222991;28;20044;-77
2023/12/24 05:20:18;;;;;;;5.05;1.75;;;;;;;11.41;100.00;100729.91;5209605;28;20040;-76
2023/12/24 05:22:49;;;;;;;5.15;1.58;;;;;;;11.40;100.00;100738.97;5208748;28;20075;-76
2023/12/24 05:25:20;;;;;;;6.22;1.67;;;;;;;11.39;100.00;100734.59;5202077;28;20060;-77
2023/12/24 05:27:51;;;;;;;4.40;1.70;;;;;;;11.35;100.00;100735.97;5207008;28;20048;-76
2023/12/24 05:30:21;;;;;;;4.93;1.90;;;;;;;11.31;100.00;100723.91;5227681;28;20025;-76
2023/12/24 05:32:52;;;;;;;11.63;2.00;;;;;;;11.44;100.00;100724.16;5222020;28;20021;-76
2023/12/24 05:35:22;;;;;;;4.90;1.77;;;;;;;11.42;100.00;100728.88;5211890;28;20627;-77
2023/12/24 05:37:53;;;;;;;5.78;2.15;;;;;;;11.35;100.00;100719.84;5207455;28;20029;-76
2023/12/24 05:40:23;;;;;;;7.35;1.98;;;;;;;11.41;100.00;100729.91;5208125;28;20078;-76
2023/12/24 05:42:54;;;;;;;7.07;2.42;;;;;;;11.51;100.00;100727.84;5208826;28;20484;-77
2023/12/24 05:45:24;;;;;;;7.35;2.08;;;;;;;11.37;100.00;100737.47;5207155;28;20102;-77
2023/12/24 05:47:55;;;;;;;9.88;2.20;;;;;;;11.38;100.00;100720.31;5204498;28;20396;-77
2023/12/24 05:50:25;;;;;;;6.80;2.25;;;;;;;11.48;100.00;100720.13;5201206;28;20055;-77
2023/12/24 05:52:56;;;;;;;6.47;1.95;;;;;;;11.43;100.00;100725.19;5205855;28;20033;-76
2023/12/24 05:55:27;;;;;;;5.82;2.40;;;;;;;11.49;100.00;100721.78;5201843;28;20029;-77
2023/12/24 05:57:57;;;;;;;5.68;2.45;;;;;;;11.37;100.00;100725.88;5200644;28;20017;-76
2023/12/24 06:00:28;;;;;;;12.77;6.20;;;;;;;11.45;100.00;100711.59;5206062;28;20503;-76
2023/12/24 06:03:00;;;;;;;16.80;9.95;;;;;;;11.44;100.00;100726.00;5209838;28;20036;-76
2023/12/24 06:05:31;;;;;;;11.57;5.68;;;;;;;11.45;100.00;100731.22;5204952;28;20079;-76
2023/12/24 06:08:02;;;;;;;7.38;2.05;;;;;;;11.35;100.00;100725.22;5207046;28;20033;-76
2023/12/24 06:10:34;;;;;;;8.40;4.90;;;;;;;11.37;100.00;100733.94;5203224;28;20036;-77
2023/12/24 06:13:05;;;;;;;3.55;1.80;;;;;;;11.36;100.00;100729.59;5207561;28;20762;-76
2023/12/24 06:15:35;;;;;;;12.98;6.38;;;;;;;11.48;100.00;100725.50;5202037;28;20022;-76
2023/12/24 06:18:06;;;;;;;6.43;3.35;;;;;;;11.39;100.00;100723.84;5208574;28;20036;-76
2023/12/24 06:20:37;;;;;;;8.73;4.45;;;;;;;11.40;100.00;100729.06;5204215;28;20511;-76
2023/12/24 06:23:07;;;;;;;5.95;2.13;;;;;;;11.45;100.00;100722.34;5205556;28;20033;-76
2023/12/24 06:25:38;;;;;;;4.28;2.90;;;;;;;11.39;100.00;100723.84;5205330;28;20025;-76
2023/12/24 06:28:08;;;;;;;4.55;2.72;;;;;;;11.46;100.00;100716.78;5209816;28;20032;-77
2023/12/24 06:30:39;;;;;;;13.93;7.68;;;;;;;11.48;100.00;100703.16;5203821;28;20037;-77
2023/12/24 06:33:09;;;;;;;6.72;3.25;;;;;;;11.46;100.00;100713.25;5208483;28;20029;-76
2023/12/24 06:35:40;;;;;;;7.03;2.10;;;;;;;11.44;100.00;100702.66;5207273;28;20029;-77
2023/12/24 06:38:10;;;;;;;11.13;4.38;;;;;;;11.51;100.00;100706.34;5205943;28;20037;-76
2023/12/24 06:40:41;;;;;;;2.95;1.52;;;;;;;11.48;100.00;100708.53;5205864;28;20451;-76
2023/12/24 06:43:12;;;;;;;5.43;1.20;;;;;;;11.53;100.00;100707.00;5224166;28;20486;-76
2023/12/24 06:45:43;;;;;;;3.58;1.52;;;;;;;11.54;100.00;100710.50;5202938;28;20026;-76
2023/12/24 06:48:16;;;;;;;4.60;2.33;;;;;;;11.56;100.00;100703.97;5200824;28;20021;-76
2023/12/24 06:50:46;;;;;;;2.40;1.35;;;;;;;11.58;100.00;100693.88;5202519;28;20098;-76
2023/12/24 06:53:17;;;;;;;6.00;1.35;;;;;;;11.54;100.00;100695.22;5207815;28;20112;-76
2023/12/24 06:55:47;;;;;;;4.72;1.65;;;;;;;11.51;100.00;100703.66;5203898;28;20021;-77
2023/12/24 06:58:18;;;;;;;9.65;5.18;;;;;;;11.51;100.00;100684.03;5203049;28;20032;-76
2023/12/24 07:00:48;;;;;;;14.30;9.40;;;;;;;11.53;100.00;100688.19;5205320;28;20022;-77
2023/12/24 07:03:19;;;;;;;27.58;18.42;;;;;;;11.56;100.00;100700.44;5208494;28;20035;-77
2023/12/24 07:05:49;;;;;;;5.13;2.30;;;;;;;11.53;100.00;100684.66;5204261;28;20021;-77
2023/12/24 07:08:21;;;;;;;3.08;1.30;;;;;;;11.60;100.00;100696.41;5207700;28;20029;-77
2023/12/24 07:10:52;;;;;;;8.07;4.38;;;;;;;11.62;100.00;100694.34;5205480;28;20017;-77
2023/12/24 07:13:22;;;;;;;11.50;2.50;;;;;;;11.54;100.00;100687.16;5221626;28;20480;-76
2023/12/24 07:15:54;;;;;;;4.55;2.08;;;;;;;11.58;100.00;100693.03;5204335;28;20144;-77
2023/12/24 07:18:24;;;;;;;10.77;1.65;;;;;;;11.66;100.00;100683.09;5204803;28;20025;-77
2023/12/24 07:20:55;;;;;;;19.67;14.75;;;;;;;11.66;100.00;100691.16;5207044;28;20047;-76
2023/12/24 07:23:25;;;;;;;5.43;1.92;;;;;;;11.59;100.00;100692.84;5206793;28;20075;-77
2023/12/24 07:25:56;;;;;;;3.65;2.22;;;;;;;11.57;100.00;100708.31;5209971;28;20060;-77
2023/12/24 07:28:26;;;;;;;13.20;7.00;;;;;;;11.57;100.00;100688.69;5207713;28;20037;-77
2023/12/24 07:30:57;;;;;;;4.63;2.67;;;;;;;11.70;100.00;100697.00;5211209;28;20032;-77
2023/12/24 07:33:28;;;;;;;6.20;2.35;;;;;;;11.59;100.00;100702.75;5207627;28;20049;-77
2023/12/24 07:35:59;;;;;;;5.53;1.70;;;;;;;11.61;100.00;100701.59;5209356;28;20109;-77
2023/12/24 07:38:30;;;;;;;4.53;2.20;;;;;;;11.71;100.00;100689.78;5208366;28;20116;-77
2023/12/24 07:41:01;;;;;;;5.10;2.10;;;;;;;11.78;100.00;100705.00;5208910;28;20120;-77
2023/12/24 07:43:31;;;;;;;4.90;2.40;;;;;;;11.76;100.00;100701.66;5211026;28;20037;-77
2023/12/24 07:46:02;;;;;;;4.97;1.95;;;;;;;11.72;100.00;100700.34;5208702;28;20431;-76
2023/12/24 07:48:33;;;;;;;11.40;3.00;;;;;;;11.76;100.00;100695.47;5210469;28;20377;-77
2023/12/24 07:51:03;;;;;;;6.03;2.65;;;;;;;11.76;100.00;100696.28;5200780;28;20449;-77
2023/12/24 07:53:34;;;;;;;5.13;2.45;;;;;;;11.68;100.00;100699.84;5208285;28;20439;-76
2023/12/24 07:56:05;;;;;;;5.28;2.63;;;;;;;11.80;100.00;100704.84;5211157;28;20021;-77
2023/12/24 07:58:36;;;;;;;5.88;2.92;;;;;;;11.72;100.00;100705.72;5206764;28;20404;-76
2023/12/24 08:01:07;;;;;;;7.25;2.40;;;;;;;11.70;100.00;100693.47;5211914;28;20037;-76
2023/12/24 08:03:37;;;;;;;6.50;2.38;;;;;;;11.76;100.00;100690.09;5208217;28;20083;-77
2023/12/24 08:06:08;;;;;;;6.53;3.20;;;;;;;11.80;100.00;100696.78;5211863;28;20388;-76
2023/12/24 08:08:38;;;;;;;4.30;2.65;;;;;;;11.83;100.00;100675.78;5207031;28;20029;-77
2023/12/24 08:11:09;;;;;;;10.82;2.72;;;;;;;11.83;100.00;100674.94;5210740;28;20488;-77
2023/12/24 08:13:39;;;;;;;5.57;3.03;;;;;;;11.82;100.00;100692.09;5205663;28;20037;-77
2023/12/24 08:16:10;;;;;;;4.22;2.05;;;;;;;11.88;100.00;100688.69;5212376;28;20029;-76
2023/12/24 08:18:40;;;;;;;7.15;2.60;;;;;;;11.80;100.00;100681.50;5206333;28;20029;-77
2023/12/24 08:21:11;;;;;;;8.55;2.60;;;;;;;11.85;100.00;100707.88;5211216;28;20032;-76
2023/12/24 08:23:42;;;;;;;7.93;4.43;;;;;;;11.83;100.00;100707.19;5203404;28;20029;-77
2023/12/24 08:26:12;;;;;;;6.18;4.10;;;;;;;11.91;100.00;100704.47;5192883;28;20029;-76
2023/12/24 08:28:43;;;;;;;10.30;7.00;;;;;;;11.94;100.00;100693.34;5206583;28;20036;-76
2023/12/24 08:31:14;;;;;;;10.60;4.63;;;;;;;11.94;100.00;100704.09;5205274;28;20072;-77
2023/12/24 08:33:44;;;;;;;21.73;10.48;;;;;;;11.95;100.00;100704.91;5207243;28;20030;-76
2023/12/24 08:36:15;;;;;;;10.77;6.00;;;;;;;11.97;100.00;100698.38;5206467;28;20062;-76
2023/12/24 08:38:45;;;;;;;15.85;7.90;;;;;;;11.92;100.00;100701.59;5205033;28;20025;-76
2023/12/24 08:41:16;;;;;;;9.27;4.95;;;;;;;11.90;100.00;100694.72;5226050;28;20082;-77
2023/12/24 08:43:46;;;;;;;8.35;4.43;;;;;;;12.03;100.00;100711.09;5207373;28;20384;-76
2023/12/24 08:46:17;;;;;;;13.43;5.95;;;;;;;12.04;100.00;100701.16;5207707;28;20017;-77
2023/12/24 08:48:48;;;;;;;7.28;3.83;;;;;;;12.03;100.00;100702.19;5207763;28;20427;-77
2023/12/24 08:51:18;;;;;;;12.70;6.45;;;;;;;11.98;100.00;100704.56;5207524;28;20029;-77
2023/12/24 08:53:49;;;;;;;4.75;2.60;;;;;;;12.01;100.00;100697.00;5207640;28;20029;-76
2023/12/24 08:56:19;;;;;;;7.45;3.92;;;;;;;11.98;100.00;100694.66;5208557;28;20037;-76
2023/12/24 08:58:50;;;;;;;6.72;3.15;;;;;;;12.08;100.00;100695.25;5204066;28;20029;-76
2023/12/24 09:01:20;;;;;;;7.88;3.00;;;;;;;12.12;100.00;100701.13;5207926;28;20078;-76
2023/12/24 09:03:51;;;;;;;10.00;4.22;;;;;;;12.11;100.00;100711.03;5223571;28;20033;-76
2023/12/24 09:06:21;;;;;;;5.30;3.45;;;;;;;12.18;100.00;100700.38;5199448;28;20025;-76
2023/12/24 09:08:52;;;;;;;7.93;4.57;;;;;;;12.10;100.00;100709.38;5200312;28;20037;-77
2023/12/24 09:11:23;;;;;;;4.53;2.70;;;;;;;12.16;100.00;100714.03;5207394;28;20110;-77
2023/12/24 09:13:53;;;;;;;4.45;2.20;;;;;;;12.17;100.00;100715.69;5206502;28;20025;-76
2023/12/24 09:16:24;;;;;;;6.53;2.33;;;;;;;12.16;100.00;100716.72;5207809;28;20041;-76
2023/12/24 09:18:54;;;;;;;6.00;2.97;;;;;;;12.29;100.00;100717.94;5204557;28;20116;-77
2023/12/24 09:21:25;;;;;;;4.53;1.77;;;;;;;12.23;100.00;100719.50;5208780;28;20030;-77
2023/12/24 09:23:58;;;;;;;6.13;2.53;;;;;;;12.28;100.00;100716.28;5224081;28;20054;-77
2023/12/24 09:26:29;;;;;;;5.13;2.08;;;;;;;12.23;100.00;100718.69;5207048;28;20026;-76
2023/12/24 09:28:59;;;;;;;5.43;1.83;;;;;;;12.23;100.00;100726.75;5206709;28;20028;-77
2023/12/24 09:31:30;;;;;;;21.40;12.88;;;;;;;12.28;100.00;100716.28;5204715;28;20033;-76
2023/12/24 09:34:00;;;;;;;2.40;1.67;;;;;;;12.13;100.00;100703.63;5209397;28;20037;-76
2023/12/24 09:36:31;;;;;;;7.47;1.65;;;;;;;12.20;100.00;100703.75;5205612;28;20037;-76
2023/12/24 09:39:02;;;;;;;4.10;2.33;;;;;;;12.29;100.00;100699.97;5207956;28;20126;-75
2023/12/24 09:41:32;;;;;;;5.55;1.70;;;;;;;12.22;100.00;100695.50;5205050;28;20033;-76
2023/12/24 09:44:04;;;;;;;5.03;2.00;;;;;;;12.23;100.00;100678.34;5206480;28;20055;-76
2023/12/24 09:46:35;;;;;;;7.60;2.97;;;;;;;12.27;100.00;100712.75;5205567;28;20025;-76
2023/12/24 09:49:06;;;;;;;4.07;2.47;;;;;;;12.29;100.00;100699.13;5206534;28;20031;-75
2023/12/24 09:51:39;;;;;;;3.30;1.55;;;;;;;12.27;100.00;100703.88;5205643;28;20104;-76
2023/12/24 09:54:09;;;;;;;4.38;1.73;;;;;;;12.33;100.00;100703.97;5206503;28;20472;-76
2023/12/24 09:56:40;;;;;;;4.47;1.98;;;;;;;12.25;100.00;100698.66;5198747;28;20033;-76
2023/12/24 09:59:10;;;;;;;7.28;2.45;;;;;;;12.35;100.00;100685.81;5199241;28;20164;-75
2023/12/24 10:01:43;;;;;;;14.68;7.10;;;;;;;12.38;100.00;100704.25;5204153;28;20029;-77
2023/12/24 10:04:14;;;;;;;4.15;2.58;;;;;;;12.41;100.00;100701.22;5204284;28;20170;-77
2023/12/24 10:06:57;;;;;;;8.57;3.28;;;;;;;12.48;100.00;100704.00;5201877;28;20040;-76
2023/12/24 10:09:50;;;;;;;2.28;1.23;;;;;;;12.50;100.00;100710.06;5200559;28;20052;-77
2023/12/24 10:12:21;;;;;;;8.23;2.15;;;;;;;12.55;100.00;100709.47;5194702;28;20017;-76
2023/12/24 10:14:55;;;;;;;5.07;1.58;;;;;;;12.61;100.00;100704.22;5196651;28;20065;-77
2023/12/24 10:17:31;;;;;;;7.63;3.13;;;;;;;12.65;100.00;100707.38;5201911;28;20029;-77
2023/12/24 10:20:04;;;;;;;10.20;2.00;;;;;;;12.63;100.00;100704.03;5202273;28;20044;-76
2023/12/24 10:22:35;;;;;;;7.63;1.77;;;;;;;12.69;100.00;100706.00;5204314;28;20112;-77
2023/12/24 10:25:06;;;;;;;7.70;2.15;;;;;;;12.69;100.00;100693.38;5203622;28;20029;-76
2023/12/24 10:27:37;;;;;;;8.95;2.30;;;;;;;12.65;100.00;100696.59;5197085;28;20079;-77
2023/12/24 10:30:11;;;;;;;4.40;2.05;;;;;;;12.66;100.00;100696.44;5202254;28;20462;-76
2023/12/24 10:32:42;;;;;;;3.47;1.60;;;;;;;12.66;100.00;100701.81;5199312;28;20026;-77
2023/12/24 10:35:21;;;;;;;5.45;1.23;;;;;;;12.67;100.00;100692.72;5203675;28;20026;-76
2023/12/24 10:38:05;;;;;;;6.03;2.17;;;;;;;12.70;100.00;100713.91;5200758;28;20026;-77
2023/12/24 10:40:36;;;;;;;3.95;1.48;;;;;;;12.66;100.00;100691.06;5200534;28;20392;-77
2023/12/24 10:43:06;;;;;;;8.32;2.30;;;;;;;12.77;100.00;100678.16;5204654;28;20107;-78
2023/12/24 10:45:37;;;;;;;16.33;11.80;;;;;;;12.72;100.00;100665.25;5202473;28;20495;-78
2023/12/24 10:48:08;;;;;;;3.83;2.25;;;;;;;12.72;100.00;100662.56;5207515;28;20024;-78
2023/12/24 10:50:38;;;;;;;5.60;3.13;;;;;;;12.79;100.00;100659.97;5198495;28;20025;-77
2023/12/24 10:53:09;;;;;;;11.15;3.03;;;;;;;12.87;100.00;100670.66;5202273;28;20029;-78
2023/12/24 10:55:44;;;;;;;7.72;2.47;;;;;;;12.83;100.00;100651.34;5201483;28;20033;-78
2023/12/24 10:58:24;;;;;;;6.95;3.00;;;;;;;12.80;100.00;100648.16;5191896;28;20109;-78
2023/12/24 11:01:05;;;;;;;10.40;3.85;;;;;;;12.76;100.00;100633.44;5204576;28;20026;-78
2023/12/24 11:03:48;;;;;;;9.18;3.63;;;;;;;12.77;100.00;100635.09;5206449;28;20033;-78
2023/12/24 11:06:37;;;;;;;12.27;4.70;;;;;;;12.77;100.00;100635.94;5200750;28;20025;-78
2023/12/24 11:09:14;;;;;;;9.93;4.50;;;;;;;12.69;100.00;100631.47;5199714;28;20040;-78
2023/12/24 11:11:53;;;;;;;7.13;4.40;;;;;;;12.77;100.00;100643.16;5201913;28;20033;-78
2023/12/24 11:14:37;;;;;;;16.33;5.45;;;;;;;12.64;100.00;100630.34;5203339;28;20499;-78
2023/12/24 11:17:08;;;;;;;32.67;7.82;;;;;;;12.63;100.00;100634.91;5201304;28;20515;-78
2023/12/24 11:19:41;;;;;;;11.23;4.63;;;;;;;12.53;100.00;100637.03;5205599;28;20507;-78
2023/12/24 11:22:12;;;;;;;10.90;4.53;;;;;;;12.70;100.00;100630.47;5205131;28;20029;-78
2023/12/24 11:24:43;;;;;;;11.88;5.50;;;;;;;12.64;100.00;100624.97;5201937;28;20029;-78
2023/12/24 11:27:14;;;;;;;8.20;4.75;;;;;;;12.52;100.00;100616.53;5204846;28;20076;-78
2023/12/24 11:29:47;;;;;;;12.60;6.75;;;;;;;12.56;100.00;100633.16;5220722;28;20026;-78
2023/12/24 11:32:25;;;;;;;12.23;5.43;;;;;;;12.57;100.00;100624.03;5202774;28;20056;-78
2023/12/24 11:34:58;;;;;;;10.00;6.10;;;;;;;12.62;100.00;100622.47;5203903;28;20052;-78